sensor_id;sensor_type;location;lat;lon;timestamp;temperature;humidity
1728;DHT22;861;48.808;9.006;2023-04-03T17:51:17;8.40;94.20
1728;DHT22;861;48.808;9.006;2023-04-03T17:53:47;8.20;94.30
1728;DHT22;861;48.808;9.006;2023-04-03T17:56:18;8.20;95.20
1728;DHT22;861;48.808;9.006;2023-04-03T17:58:50;8.30;95.40
1728;DHT22;861;48.808;9.006;2023-04-03T18:01:26;8.20;95.30
1728;DHT22;861;48.808;9.006;2023-04-03T18:04:04;8.10;95.00
1728;DHT22;861;48.808;9.006;2023-04-03T18:06:44;8.20;95.00
1728;DHT22;861;48.808;9.006;2023-04-03T18:09:20;8.00;95.30
1728;DHT22;861;48.808;9.006;2023-04-03T18:11:57;7.70;95.80
1728;DHT22;861;48.808;9.006;2023-04-03T18:14:28;7.70;95.80
1728;DHT22;861;48.808;9.006;2023-04-03T18:16:55;7.60;95.70
1728;DHT22;861;48.808;9.006;2023-04-03T18:19:23;7.40;96.20
1728;DHT22;861;48.808;9.006;2023-04-03T18:21:55;7.30;95.80
1728;DHT22;861;48.808;9.006;2023-04-03T18:24:29;7.00;95.90
1728;DHT22;861;48.808;9.006;2023-04-03T18:27:14;7.00;96.10
1728;DHT22;861;48.808;9.006;2023-04-03T18:29:51;7.00;96.20
1728;DHT22;861;48.808;9.006;2023-04-03T18:32:22;7.10;96.10
1728;DHT22;861;48.808;9.006;2023-04-03T18:34:49;7.00;96.20
1728;DHT22;861;48.808;9.006;2023-04-03T18:37:16;7.00;96.70
1728;DHT22;861;48.808;9.006;2023-04-03T18:39:43;6.90;97.20
1728;DHT22;861;48.808;9.006;2023-04-03T18:42:20;6.90;96.50
1728;DHT22;861;48.808;9.006;2023-04-03T18:44:57;6.90;96.40
1728;DHT22;861;48.808;9.006;2023-04-03T18:47:28;6.80;96.80
1728;DHT22;861;48.808;9.006;2023-04-03T18:49:57;6.70;96.80
1728;DHT22;861;48.808;9.006;2023-04-03T18:52:23;6.50;96.90
1728;DHT22;861;48.808;9.006;2023-04-03T18:54:50;6.60;97.00
1728;DHT22;861;48.808;9.006;2023-04-03T18:57:17;6.60;97.10
1728;DHT22;861;48.808;9.006;2023-04-03T18:59:43;6.60;97.30
1728;DHT22;861;48.808;9.006;2023-04-03T19:02:09;6.60;96.80
1728;DHT22;861;48.808;9.006;2023-04-03T19:04:37;6.60;97.10
1728;DHT22;861;48.808;9.006;2023-04-03T19:07:03;6.60;97.50
1728;DHT22;861;48.808;9.006;2023-04-03T19:09:32;6.70;96.80
1728;DHT22;861;48.808;9.006;2023-04-03T19:11:59;6.70;96.80
1728;DHT22;861;48.808;9.006;2023-04-03T19:14:26;6.70;97.00
1728;DHT22;861;48.808;9.006;2023-04-03T19:16:52;6.80;96.50
1728;DHT22;861;48.808;9.006;2023-04-03T19:19:19;6.80;96.10
1728;DHT22;861;48.808;9.006;2023-04-03T19:21:45;6.80;96.00
1728;DHT22;861;48.808;9.006;2023-04-03T19:24:12;6.70;96.50
1728;DHT22;861;48.808;9.006;2023-04-03T19:26:41;6.60;96.50
1728;DHT22;861;48.808;9.006;2023-04-03T19:29:08;6.40;96.90
1728;DHT22;861;48.808;9.006;2023-04-03T19:31:36;6.40;96.80
1728;DHT22;861;48.808;9.006;2023-04-03T19:34:04;6.40;96.70
1728;DHT22;861;48.808;9.006;2023-04-03T19:36:33;6.40;96.80
1728;DHT22;861;48.808;9.006;2023-04-03T19:39:02;6.40;96.40
